sensor_id;sensor_type;location;lat;lon;timestamp;pressure;altitude;pressure_sealevel;temperature;humidity
73918;BME280;63639;52.280;5.162;2022-12-29T00:01:01;100008.81;;;12.82;80.90
73918;BME280;63639;52.280;5.162;2022-12-29T00:03:28;99996.74;;;12.69;81.24
73918;BME280;63639;52.280;5.162;2022-12-29T00:05:55;99994.75;;;12.50;81.86
73918;BME280;63639;52.280;5.162;2022-12-29T00:08:21;99986.26;;;12.53;81.38
73918;BME280;63639;52.280;5.162;2022-12-29T00:10:48;99986.40;;;12.59;81.07
73918;BME280;63639;52.280;5.162;2022-12-29T00:13:15;99979.70;;;12.37;81.92
73918;BME280;63639;52.280;5.162;2022-12-29T00:15:42;99970.77;;;12.32;81.65
73918;BME280;63639;52.280;5.162;2022-12-29T00:18:09;99965.25;;;12.45;81.39
73918;BME280;63639;52.280;5.162;2022-12-29T00:20:36;99958.01;;;12.60;80.45
73918;BME280;63639;52.280;5.162;2022-12-29T00:23:03;99951.20;;;12.76;79.80
73918;BME280;63639;52.280;5.162;2022-12-29T00:25:30;99940.45;;;12.73;79.62
73918;BME280;63639;52.280;5.162;2022-12-29T00:27:57;99944.97;;;12.72;79.54
73918;BME280;63639;52.280;5.162;2022-12-29T00:30:24;99932.14;;;12.51;80.10
73918;BME280;63639;52.280;5.162;2022-12-29T00:32:51;99940.20;;;12.96;78.53
73918;BME280;63639;52.280;5.162;2022-12-29T00:35:23;99933.38;;;12.77;78.60
73918;BME280;63639;52.280;5.162;2022-12-29T00:37:52;99923.67;;;12.88;78.31
73918;BME280;63639;52.280;5.162;2022-12-29T00:40:20;99919.61;;;12.80;78.10
73918;BME280;63639;52.280;5.162;2022-12-29T00:42:47;99913.22;;;12.91;77.71
73918;BME280;63639;52.280;5.162;2022-12-29T00:45:14;99919.75;;;13.10;76.92
73918;BME280;63639;52.280;5.162;2022-12-29T00:47:41;99904.45;;;13.04;77.24
73918;BME280;63639;52.280;5.162;2022-12-29T00:50:08;99895.38;;;12.88;77.13
73918;BME280;63639;52.280;5.162;2022-12-29T00:52:34;99889.51;;;12.85;77.64
73918;BME280;63639;52.280;5.162;2022-12-29T00:55:01;99886.11;;;12.88;77.24
73918;BME280;63639;52.280;5.162;2022-12-29T00:57:28;99882.38;;;12.85;77.05
73918;BME280;63639;52.280;5.162;2022-12-29T00:59:55;99879.19;;;12.94;76.93
73918;BME280;63639;52.280;5.162;2022-12-29T01:02:22;99877.00;;;13.10;76.50
73918;BME280;63639;52.280;5.162;2022-12-29T01:04:49;99883.46;;;12.72;76.96
73918;BME280;63639;52.280;5.162;2022-12-29T01:07:15;99886.82;;;12.59;77.71
73918;BME280;63639;52.280;5.162;2022-12-29T01:09:42;99885.22;;;12.57;78.74
73918;BME280;63639;52.280;5.162;2022-12-29T01:12:10;99883.47;;;12.61;78.71
73918;BME280;63639;52.280;5.162;2022-12-29T01:14:38;99877.31;;;12.47;79.26
73918;BME280;63639;52.280;5.162;2022-12-29T01:17:05;99865.36;;;12.63;79.51
73918;BME280;63639;52.280;5.162;2022-12-29T01:19:33;99873.54;;;12.84;79.02
73918;BME280;63639;52.280;5.162;2022-12-29T01:21:59;99862.26;;;12.57;80.29
73918;BME280;63639;52.280;5.162;2022-12-29T01:24:26;99871.34;;;12.65;80.56
73918;BME280;63639;52.280;5.162;2022-12-29T01:26:53;99871.86;;;12.47;81.35
73918;BME280;63639;52.280;5.162;2022-12-29T01:29:20;99872.61;;;12.55;81.32
73918;BME280;63639;52.280;5.162;2022-12-29T01:31:47;99870.46;;;12.16;82.67
73918;BME280;63639;52.280;5.162;2022-12-29T01:34:13;99868.23;;;12.18;83.35
73918;BME280;63639;52.280;5.162;2022-12-29T01:36:40;99878.75;;;12.05;83.48
73918;BME280;63639;52.280;5.162;2022-12-29T01:39:07;99873.88;;;12.03;83.87
73918;BME280;63639;52.280;5.162;2022-12-29T01:41:34;99879.91;;;11.90;84.78
73918;BME280;63639;52.280;5.162;2022-12-29T01:44:01;99876.84;;;11.98;85.40
73918;BME280;63639;52.280;5.162;2022-12-29T01:46:30;99876.22;;;12.22;84.10
73918;BME280;63639;52.280;5.162;2022-12-29T01:49:03;99882.91;;;11.79;85.61
73918;BME280;63639;52.280;5.162;2022-12-29T01:51:33;99880.40;;;11.99;84.75
73918;BME280;63639;52.280;5.162;2022-12-29T01:54:04;99892.27;;;12.00;84.44
73918;BME280;63639;52.280;5.162;2022-12-29T01:56:35;99880.87;;;12.06;84.33
73918;BME280;63639;52.280;5.162;2022-12-29T01:59:08;99881.99;;;12.08;83.85
73918;BME280;63639;52.280;5.162;2022-12-29T02:01:45;99885.96;;;11.93;84.26
73918;BME280;63639;52.280;5.162;2022-12-29T02:04:12;99888.15;;;12.34;82.86
73918;BME280;63639;52.280;5.162;2022-12-29T02:06:45;99889.88;;;12.18;82.70
73918;BME280;63639;52.280;5.162;2022-12-29T02:09:14;99880.25;;;12.06;82.73
73918;BME280;63639;52.280;5.162;2022-12-29T02:11:41;99890.78;;;12.05;83.20
73918;BME280;63639;52.280;5.162;2022-12-29T02:14:09;99885.88;;;12.24;82.62
73918;BME280;63639;52.280;5.162;2022-12-29T02:16:49;99891.72;;;12.24;82.08
73918;BME280;63639;52.280;5.162;2022-12-29T02:19:44;99906.60;;;11.88;83.19
73918;BME280;63639;52.280;5.162;2022-12-29T02:22:20;99898.32;;;12.00;83.01
73918;BME280;63639;52.280;5.162;2022-12-29T02:25:27;99909.75;;;12.00;82.73
73918;BME280;63639;52.280;5.162;2022-12-29T02:28:16;99901.40;;;12.12;82.05
73918;BME280;63639;52.280;5.162;2022-12-29T02:30:58;99892.28;;;12.24;81.02
73918;BME280;63639;52.280;5.162;2022-12-29T02:33:37;99890.39;;;12.21;80.63
73918;BME280;63639;52.280;5.162;2022-12-29T02:36:12;99885.72;;;12.30;80.19
73918;BME280;63639;52.280;5.162;2022-12-29T02:38:51;99886.69;;;12.33;79.70
73918;BME280;63639;52.280;5.162;2022-12-29T02:41:28;99882.17;;;12.25;80.20
73918;BME280;63639;52.280;5.162;2022-12-29T02:44:00;99885.05;;;12.53;78.52
73918;BME280;63639;52.280;5.162;2022-12-29T02:46:34;99872.45;;;12.36;79.24
73918;BME280;63639;52.280;5.162;2022-12-29T02:49:07;99877.37;;;12.42;78.96
73918;BME280;63639;52.280;5.162;2022-12-29T02:51:43;99876.42;;;12.39;80.13
73918;BME280;63639;52.280;5.162;2022-12-29T02:54:11;99880.20;;;12.28;80.44
73918;BME280;63639;52.280;5.162;2022-12-29T02:56:38;99885.26;;;12.06;81.55
73918;BME280;63639;52.280;5.162;2022-12-29T02:59:05;99881.50;;;12.14;81.50
73918;BME280;63639;52.280;5.162;2022-12-29T03:01:45;99886.20;;;12.01;81.66
73918;BME280;63639;52.280;5.162;2022-12-29T03:04:23;99884.31;;;12.05;81.56
73918;BME280;63639;52.280;5.162;2022-12-29T03:07:05;99878.24;;;11.84;82.26
73918;BME280;63639;52.280;5.162;2022-12-29T03:09:43;99878.78;;;11.76;81.55
73918;BME280;63639;52.280;5.162;2022-12-29T03:12:22;99875.78;;;11.72;82.05
73918;BME280;63639;52.280;5.162;2022-12-29T03:14:58;99881.24;;;11.73;81.96
73918;BME280;63639;52.280;5.162;2022-12-29T03:17:29;99887.37;;;11.70;82.03
73918;BME280;63639;52.280;5.162;2022-12-29T03:20:06;99882.34;;;11.84;80.61
73918;BME280;63639;52.280;5.162;2022-12-29T03:22:38;99883.96;;;12.05;79.49
73918;BME280;63639;52.280;5.162;2022-12-29T03:25:10;99879.37;;;12.02;78.34
73918;BME280;63639;52.280;5.162;2022-12-29T03:27:41;99874.71;;;11.97;78.44
73918;BME280;63639;52.280;5.162;2022-12-29T03:30:09;99876.91;;;11.83;77.69
73918;BME280;63639;52.280;5.162;2022-12-29T03:32:40;99878.02;;;11.66;78.65
73918;BME280;63639;52.280;5.162;2022-12-29T03:35:11;99892.06;;;11.96;77.58
73918;BME280;63639;52.280;5.162;2022-12-29T03:37:44;99885.45;;;12.09;76.60
73918;BME280;63639;52.280;5.162;2022-12-29T03:40:15;99878.81;;;12.03;76.71
73918;BME280;63639;52.280;5.162;2022-12-29T03:42:43;99883.76;;;12.12;76.13
73918;BME280;63639;52.280;5.162;2022-12-29T03:45:11;99879.63;;;12.16;75.21
73918;BME280;63639;52.280;5.162;2022-12-29T03:47:37;99879.35;;;12.22;75.44
73918;BME280;63639;52.280;5.162;2022-12-29T03:50:05;99871.17;;;11.95;75.59
73918;BME280;63639;52.280;5.162;2022-12-29T03:52:32;99871.27;;;11.82;76.45
73918;BME280;63639;52.280;5.162;2022-12-29T03:54:59;99862.29;;;12.06;75.64
73918;BME280;63639;52.280;5.162;2022-12-29T03:57:26;99858.36;;;12.22;74.63
73918;BME280;63639;52.280;5.162;2022-12-29T03:59:52;99855.66;;;12.37;74.00
73918;BME280;63639;52.280;5.162;2022-12-29T04:02:19;99870.12;;;12.32;74.45
73918;BME280;63639;52.280;5.162;2022-12-29T04:04:47;99868.05;;;12.32;74.13
73918;BME280;63639;52.280;5.162;2022-12-29T04:07:14;99891.56;;;12.11;74.60
73918;BME280;63639;52.280;5.162;2022-12-29T04:09:41;99882.48;;;12.04;74.91
73918;BME280;63639;52.280;5.162;2022-12-29T04:12:08;99912.37;;;12.12;74.66
73918;BME280;63639;52.280;5.162;2022-12-29T04:14:34;99909.77;;;11.99;74.78
73918;BME280;63639;52.280;5.162;2022-12-29T04:17:01;99909.46;;;11.92;75.35
73918;BME280;63639;52.280;5.162;2022-12-29T04:19:28;99901.03;;;12.13;74.84
73918;BME280;63639;52.280;5.162;2022-12-29T04:21:55;99905.61;;;12.02;75.34
73918;BME280;63639;52.280;5.162;2022-12-29T04:24:22;99908.87;;;12.11;75.41
73918;BME280;63639;52.280;5.162;2022-12-29T04:26:49;99891.11;;;11.75;76.45
73918;BME280;63639;52.280;5.162;2022-12-29T04:29:16;99898.54;;;11.95;76.10
73918;BME280;63639;52.280;5.162;2022-12-29T04:31:44;99908.04;;;11.89;75.86
73918;BME280;63639;52.280;5.162;2022-12-29T04:34:10;99897.10;;;12.06;75.48
73918;BME280;63639;52.280;5.162;2022-12-29T04:36:37;99910.00;;;11.84;75.48
73918;BME280;63639;52.280;5.162;2022-12-29T04:39:04;99915.28;;;11.92;75.09
73918;BME280;63639;52.280;5.162;2022-12-29T04:41:31;99925.38;;;12.00;74.50
73918;BME280;63639;52.280;5.162;2022-12-29T04:43:59;99910.48;;;11.96;73.68
73918;BME280;63639;52.280;5.162;2022-12-29T04:46:25;99910.61;;;11.84;72.94
73918;BME280;63639;52.280;5.162;2022-12-29T04:48:52;99911.29;;;11.78;73.16
73918;BME280;63639;52.280;5.162;2022-12-29T04:51:20;99925.38;;;11.59;72.22
73918;BME280;63639;52.280;5.162;2022-12-29T04:53:51;99920.85;;;11.69;71.98
73918;BME280;63639;52.280;5.162;2022-12-29T04:56:18;99915.36;;;11.64;72.31
73918;BME280;63639;52.280;5.162;2022-12-29T04:58:45;99910.96;;;11.56;72.09
73918;BME280;63639;52.280;5.162;2022-12-29T05:01:11;99915.87;;;11.74;72.11
73918;BME280;63639;52.280;5.162;2022-12-29T05:03:38;99929.02;;;11.93;71.70
73918;BME280;63639;52.280;5.162;2022-12-29T05:06:06;99924.70;;;11.62;73.15
73918;BME280;63639;52.280;5.162;2022-12-29T05:08:33;99914.58;;;11.66;73.70
73918;BME280;63639;52.280;5.162;2022-12-29T05:11:00;99916.83;;;11.44;74.48
73918;BME280;63639;52.280;5.162;2022-12-29T05:13:27;99935.58;;;11.56;73.82
73918;BME280;63639;52.280;5.162;2022-12-29T05:15:54;99918.51;;;11.32;74.90
73918;BME280;63639;52.280;5.162;2022-12-29T05:18:20;99929.09;;;11.32;75.11
73918;BME280;63639;52.280;5.162;2022-12-29T05:20:47;99927.82;;;11.51;75.11
73918;BME280;63639;52.280;5.162;2022-12-29T05:23:14;99923.89;;;11.29;75.89
73918;BME280;63639;52.280;5.162;2022-12-29T05:25:41;99925.13;;;11.41;75.81
73918;BME280;63639;52.280;5.162;2022-12-29T05:28:09;99919.47;;;11.46;75.74
73918;BME280;63639;52.280;5.162;2022-12-29T05:30:36;99937.62;;;11.15;76.94
73918;BME280;63639;52.280;5.162;2022-12-29T05:33:02;99924.70;;;11.08;77.68
73918;BME280;63639;52.280;5.162;2022-12-29T05:35:29;99932.61;;;11.16;77.34
73918;BME280;63639;52.280;5.162;2022-12-29T05:37:57;99941.82;;;11.14;77.33
73918;BME280;63639;52.280;5.162;2022-12-29T05:40:23;99940.82;;;11.09;77.57
73918;BME280;63639;52.280;5.162;2022-12-29T05:42:50;99946.82;;;11.18;77.51
73918;BME280;63639;52.280;5.162;2022-12-29T05:45:17;99950.85;;;11.40;76.26
73918;BME280;63639;52.280;5.162;2022-12-29T05:47:44;99956.72;;;11.29;77.16
73918;BME280;63639;52.280;5.162;2022-12-29T05:50:11;99949.56;;;11.31;76.83
73918;BME280;63639;52.280;5.162;2022-12-29T05:52:38;99957.40;;;11.32;76.69
73918;BME280;63639;52.280;5.162;2022-12-29T05:55:06;99949.80;;;11.27;76.80
73918;BME280;63639;52.280;5.162;2022-12-29T05:57:34;99952.27;;;11.23;77.24
73918;BME280;63639;52.280;5.162;2022-12-29T06:00:01;99951.90;;;11.09;77.75
73918;BME280;63639;52.280;5.162;2022-12-29T06:02:27;99942.29;;;11.09;77.84
73918;BME280;63639;52.280;5.162;2022-12-29T06:04:54;99948.94;;;11.30;76.94
73918;BME280;63639;52.280;5.162;2022-12-29T06:07:21;99956.50;;;11.40;76.46
73918;BME280;63639;52.280;5.162;2022-12-29T06:09:48;99972.84;;;11.27;76.80
73918;BME280;63639;52.280;5.162;2022-12-29T06:12:15;99955.61;;;11.25;76.56
73918;BME280;63639;52.280;5.162;2022-12-29T06:14:42;99957.33;;;11.36;75.69
73918;BME280;63639;52.280;5.162;2022-12-29T06:17:09;99957.70;;;11.24;76.18
73918;BME280;63639;52.280;5.162;2022-12-29T06:19:36;99963.97;;;11.19;75.95
73918;BME280;63639;52.280;5.162;2022-12-29T06:22:08;99959.37;;;11.19;76.22
73918;BME280;63639;52.280;5.162;2022-12-29T06:24:35;99963.03;;;11.06;76.89
73918;BME280;63639;52.280;5.162;2022-12-29T06:27:02;99963.80;;;10.88;77.34
73918;BME280;63639;52.280;5.162;2022-12-29T06:29:28;99964.96;;;10.82;77.67
73918;BME280;63639;52.280;5.162;2022-12-29T06:31:55;99961.74;;;10.90;77.51
73918;BME280;63639;52.280;5.162;2022-12-29T06:34:22;99974.99;;;11.13;76.33
73918;BME280;63639;52.280;5.162;2022-12-29T06:36:51;99979.23;;;10.92;76.63
73918;BME280;63639;52.280;5.162;2022-12-29T06:39:17;99996.06;;;10.82;77.05
73918;BME280;63639;52.280;5.162;2022-12-29T06:41:44;99977.69;;;10.97;76.89
73918;BME280;63639;52.280;5.162;2022-12-29T06:44:11;99991.39;;;10.97;76.11
73918;BME280;63639;52.280;5.162;2022-12-29T06:46:38;100000.55;;;10.93;76.14
73918;BME280;63639;52.280;5.162;2022-12-29T06:49:05;100002.37;;;11.07;76.10
73918;BME280;63639;52.280;5.162;2022-12-29T06:51:32;99990.93;;;10.96;75.94
73918;BME280;63639;52.280;5.162;2022-12-29T06:53:59;99994.84;;;10.82;75.41
73918;BME280;63639;52.280;5.162;2022-12-29T06:56:26;99988.98;;;10.97;75.51
73918;BME280;63639;52.280;5.162;2022-12-29T06:58:53;99991.25;;;10.92;74.63
73918;BME280;63639;52.280;5.162;2022-12-29T07:01:20;99991.96;;;11.15;74.17
73918;BME280;63639;52.280;5.162;2022-12-29T07:03:47;100002.03;;;10.97;73.84
73918;BME280;63639;52.280;5.162;2022-12-29T07:06:13;99999.08;;;11.29;73.57
73918;BME280;63639;52.280;5.162;2022-12-29T07:08:40;100011.72;;;11.13;73.19
73918;BME280;63639;52.280;5.162;2022-12-29T07:11:07;99991.32;;;11.22;72.93
73918;BME280;63639;52.280;5.162;2022-12-29T07:13:34;99995.53;;;11.17;72.85
73918;BME280;63639;52.280;5.162;2022-12-29T07:16:05;99995.03;;;11.43;71.92
73918;BME280;63639;52.280;5.162;2022-12-29T07:18:32;99991.85;;;11.55;70.96
73918;BME280;63639;52.280;5.162;2022-12-29T07:20:59;99999.47;;;11.60;70.66
73918;BME280;63639;52.280;5.162;2022-12-29T07:23:26;99996.18;;;11.57;71.00
73918;BME280;63639;52.280;5.162;2022-12-29T07:25:59;99993.56;;;11.25;71.17
73918;BME280;63639;52.280;5.162;2022-12-29T07:28:26;99994.35;;;11.22;70.77
73918;BME280;63639;52.280;5.162;2022-12-29T07:30:53;99998.75;;;11.26;70.57
73918;BME280;63639;52.280;5.162;2022-12-29T07:33:20;99995.59;;;11.46;70.11
73918;BME280;63639;52.280;5.162;2022-12-29T07:35:46;99994.48;;;11.38;69.96
73918;BME280;63639;52.280;5.162;2022-12-29T07:38:13;100013.55;;;11.17;70.79
73918;BME280;63639;52.280;5.162;2022-12-29T07:40:40;100014.41;;;11.05;71.52
73918;BME280;63639;52.280;5.162;2022-12-29T07:43:07;100007.35;;;11.20;71.52
73918;BME280;63639;52.280;5.162;2022-12-29T07:45:34;100001.30;;;11.40;71.00
73918;BME280;63639;52.280;5.162;2022-12-29T07:48:01;100006.85;;;11.34;71.04
73918;BME280;63639;52.280;5.162;2022-12-29T07:50:27;100007.18;;;11.06;72.19
73918;BME280;63639;52.280;5.162;2022-12-29T07:52:54;100030.53;;;11.03;72.65
73918;BME280;63639;52.280;5.162;2022-12-29T07:55:21;100021.59;;;10.76;73.72
73918;BME280;63639;52.280;5.162;2022-12-29T07:57:48;100014.11;;;10.86;73.66
73918;BME280;63639;52.280;5.162;2022-12-29T08:00:15;100010.17;;;10.86;73.84
73918;BME280;63639;52.280;5.162;2022-12-29T08:02:42;100006.43;;;10.88;73.95
73918;BME280;63639;52.280;5.162;2022-12-29T08:05:09;99998.05;;;10.91;74.07
73918;BME280;63639;52.280;5.162;2022-12-29T08:07:36;100001.76;;;10.73;74.31
73918;BME280;63639;52.280;5.162;2022-12-29T08:10:04;99991.58;;;10.83;74.59
73918;BME280;63639;52.280;5.162;2022-12-29T08:12:31;99991.96;;;10.92;74.01
73918;BME280;63639;52.280;5.162;2022-12-29T08:14:58;99997.60;;;10.89;73.33
73918;BME280;63639;52.280;5.162;2022-12-29T08:17:24;99999.87;;;10.99;73.44
73918;BME280;63639;52.280;5.162;2022-12-29T08:19:51;100010.57;;;11.15;73.36
73918;BME280;63639;52.280;5.162;2022-12-29T08:22:18;100011.65;;;10.85;74.84
73918;BME280;63639;52.280;5.162;2022-12-29T08:24:45;100002.66;;;10.70;76.06
73918;BME280;63639;52.280;5.162;2022-12-29T08:27:12;100004.31;;;10.89;75.37
73918;BME280;63639;52.280;5.162;2022-12-29T08:29:39;99997.53;;;10.61;75.04
73918;BME280;63639;52.280;5.162;2022-12-29T08:32:05;99995.86;;;10.70;74.52
73918;BME280;63639;52.280;5.162;2022-12-29T08:34:32;99999.27;;;11.17;73.78
73918;BME280;63639;52.280;5.162;2022-12-29T08:36:59;99990.71;;;10.91;73.55
73918;BME280;63639;52.280;5.162;2022-12-29T08:39:26;100007.54;;;10.85;73.73
73918;BME280;63639;52.280;5.162;2022-12-29T08:41:53;99995.33;;;10.94;73.08
73918;BME280;63639;52.280;5.162;2022-12-29T08:44:20;100003.20;;;10.77;73.55
73918;BME280;63639;52.280;5.162;2022-12-29T08:46:47;100017.32;;;10.75;73.63
73918;BME280;63639;52.280;5.162;2022-12-29T08:49:14;100010.02;;;10.76;73.21
73918;BME280;63639;52.280;5.162;2022-12-29T08:51:40;100017.08;;;10.68;73.19
73918;BME280;63639;52.280;5.162;2022-12-29T08:54:07;100015.62;;;10.82;73.30
73918;BME280;63639;52.280;5.162;2022-12-29T08:56:34;100010.31;;;11.21;73.06
73918;BME280;63639;52.280;5.162;2022-12-29T08:59:01;100038.35;;;10.78;73.92
73918;BME280;63639;52.280;5.162;2022-12-29T09:01:28;100019.77;;;10.57;75.51
73918;BME280;63639;52.280;5.162;2022-12-29T09:03:55;100044.17;;;10.47;75.97
73918;BME280;63639;52.280;5.162;2022-12-29T09:06:22;100035.71;;;10.45;75.98
73918;BME280;63639;52.280;5.162;2022-12-29T09:08:48;100053.75;;;10.61;75.53
73918;BME280;63639;52.280;5.162;2022-12-29T09:11:18;100039.97;;;10.74;75.78
73918;BME280;63639;52.280;5.162;2022-12-29T09:13:46;100045.54;;;10.76;75.65
73918;BME280;63639;52.280;5.162;2022-12-29T09:16:14;100056.11;;;10.79;76.58
73918;BME280;63639;52.280;5.162;2022-12-29T09:18:41;100072.69;;;10.69;77.42
73918;BME280;63639;52.280;5.162;2022-12-29T09:21:09;100094.32;;;10.59;78.89
73918;BME280;63639;52.280;5.162;2022-12-29T09:23:36;100090.55;;;10.36;81.22
73918;BME280;63639;52.280;5.162;2022-12-29T09:26:04;100098.81;;;10.30;81.84
73918;BME280;63639;52.280;5.162;2022-12-29T09:28:32;100094.11;;;10.17;82.14
73918;BME280;63639;52.280;5.162;2022-12-29T09:30:59;100096.09;;;10.45;81.78
73918;BME280;63639;52.280;5.162;2022-12-29T09:33:27;100115.43;;;10.28;81.95
73918;BME280;63639;52.280;5.162;2022-12-29T09:35:55;100097.99;;;10.37;82.41
73918;BME280;63639;52.280;5.162;2022-12-29T09:38:23;100100.26;;;10.21;83.34
73918;BME280;63639;52.280;5.162;2022-12-29T09:40:53;100106.98;;;10.24;83.23
73918;BME280;63639;52.280;5.162;2022-12-29T09:43:36;100115.02;;;10.22;83.27
73918;BME280;63639;52.280;5.162;2022-12-29T09:46:17;100115.74;;;9.99;84.53
73918;BME280;63639;52.280;5.162;2022-12-29T09:48:50;100124.28;;;10.19;84.29
73918;BME280;63639;52.280;5.162;2022-12-29T09:51:22;100136.44;;;10.58;83.51
73918;BME280;63639;52.280;5.162;2022-12-29T09:53:53;100134.88;;;10.76;81.78
73918;BME280;63639;52.280;5.162;2022-12-29T09:56:22;100141.32;;;10.83;81.35
73918;BME280;63639;52.280;5.162;2022-12-29T09:58:55;100144.22;;;11.13;80.34
73918;BME280;63639;52.280;5.162;2022-12-29T10:01:30;100155.03;;;10.82;80.88
73918;BME280;63639;52.280;5.162;2022-12-29T10:03:59;100156.61;;;10.59;82.78
73918;BME280;63639;52.280;5.162;2022-12-29T10:06:32;100153.83;;;10.63;82.48
73918;BME280;63639;52.280;5.162;2022-12-29T10:09:07;100167.24;;;10.52;82.89
73918;BME280;63639;52.280;5.162;2022-12-29T10:11:51;100164.29;;;10.43;83.96
73918;BME280;63639;52.280;5.162;2022-12-29T10:14:34;100179.84;;;10.54;83.41
73918;BME280;63639;52.280;5.162;2022-12-29T10:17:13;100171.79;;;10.76;82.78
73918;BME280;63639;52.280;5.162;2022-12-29T10:19:54;100171.29;;;10.62;82.82
73918;BME280;63639;52.280;5.162;2022-12-29T10:22:32;100174.36;;;10.60;83.30
73918;BME280;63639;52.280;5.162;2022-12-29T10:25:06;100177.38;;;10.66;83.66
73918;BME280;63639;52.280;5.162;2022-12-29T10:27:36;100188.55;;;10.89;82.78
73918;BME280;63639;52.280;5.162;2022-12-29T10:30:04;100180.78;;;10.53;83.39
73918;BME280;63639;52.280;5.162;2022-12-29T10:32:36;100189.37;;;10.66;83.26
73918;BME280;63639;52.280;5.162;2022-12-29T10:35:11;100193.85;;;10.66;83.86
73918;BME280;63639;52.280;5.162;2022-12-29T10:37:43;100207.65;;;10.93;82.56
73918;BME280;63639;52.280;5.162;2022-12-29T10:40:18;100205.28;;;11.15;81.95
73918;BME280;63639;52.280;5.162;2022-12-29T10:42:50;100206.38;;;11.50;80.44
73918;BME280;63639;52.280;5.162;2022-12-29T10:45:19;100214.35;;;11.44;79.64
73918;BME280;63639;52.280;5.162;2022-12-29T10:47:53;100219.39;;;10.95;81.35
73918;BME280;63639;52.280;5.162;2022-12-29T10:50:24;100231.43;;;10.78;82.12
73918;BME280;63639;52.280;5.162;2022-12-29T10:52:51;100229.62;;;10.94;82.29
73918;BME280;63639;52.280;5.162;2022-12-29T10:55:22;100241.80;;;11.26;81.05
73918;BME280;63639;52.280;5.162;2022-12-29T10:57:51;100232.73;;;11.48;79.41
73918;BME280;63639;52.280;5.162;2022-12-29T11:00:20;100239.01;;;11.58;78.53
73918;BME280;63639;52.280;5.162;2022-12-29T11:03:02;100245.30;;;11.51;78.76
73918;BME280;63639;52.280;5.162;2022-12-29T11:05:39;100247.41;;;11.80;78.02
73918;BME280;63639;52.280;5.162;2022-12-29T11:08:11;100249.54;;;11.85;77.22
73918;BME280;63639;52.280;5.162;2022-12-29T11:10:41;100257.22;;;11.80;77.56
73918;BME280;63639;52.280;5.162;2022-12-29T11:13:13;100251.76;;;11.30;79.28
73918;BME280;63639;52.280;5.162;2022-12-29T11:15:43;100261.84;;;11.61;79.98
73918;BME280;63639;52.280;5.162;2022-12-29T11:18:21;100260.34;;;11.58;77.98
73918;BME280;63639;52.280;5.162;2022-12-29T11:20:49;100272.64;;;11.75;78.52
73918;BME280;63639;52.280;5.162;2022-12-29T11:23:28;100279.35;;;11.72;78.07
73918;BME280;63639;52.280;5.162;2022-12-29T11:26:13;100282.90;;;11.56;78.33
73918;BME280;63639;52.280;5.162;2022-12-29T11:28:41;100289.40;;;11.61;77.66
73918;BME280;63639;52.280;5.162;2022-12-29T11:31:09;100285.38;;;11.63;77.37
73918;BME280;63639;52.280;5.162;2022-12-29T11:33:38;100298.17;;;11.50;77.50
73918;BME280;63639;52.280;5.162;2022-12-29T11:36:07;100283.53;;;11.96;76.63
73918;BME280;63639;52.280;5.162;2022-12-29T11:38:36;100301.76;;;11.52;77.18
73918;BME280;63639;52.280;5.162;2022-12-29T11:41:04;100301.75;;;11.85;76.38
73918;BME280;63639;52.280;5.162;2022-12-29T11:43:34;100305.84;;;11.41;76.46
73918;BME280;63639;52.280;5.162;2022-12-29T11:46:04;100308.66;;;11.54;76.87
73918;BME280;63639;52.280;5.162;2022-12-29T11:48:37;100316.66;;;11.61;75.89
73918;BME280;63639;52.280;5.162;2022-12-29T11:51:06;100312.65;;;11.54;76.36
73918;BME280;63639;52.280;5.162;2022-12-29T11:53:38;100323.65;;;11.68;75.41
73918;BME280;63639;52.280;5.162;2022-12-29T11:56:08;100327.79;;;11.67;75.62
73918;BME280;63639;52.280;5.162;2022-12-29T11:58:38;100332.31;;;11.73;74.15
73918;BME280;63639;52.280;5.162;2022-12-29T12:01:07;100335.97;;;12.32;72.68
73918;BME280;63639;52.280;5.162;2022-12-29T12:03:39;100335.56;;;12.24;72.13
73918;BME280;63639;52.280;5.162;2022-12-29T12:06:11;100336.46;;;12.55;72.25
73918;BME280;63639;52.280;5.162;2022-12-29T12:08:43;100340.78;;;12.49;71.93
73918;BME280;63639;52.280;5.162;2022-12-29T12:11:14;100341.26;;;12.56;70.99
73918;BME280;63639;52.280;5.162;2022-12-29T12:13:46;100345.40;;;12.55;71.56
73918;BME280;63639;52.280;5.162;2022-12-29T12:16:22;100356.14;;;12.30;70.95
73918;BME280;63639;52.280;5.162;2022-12-29T12:18:53;100346.52;;;12.01;69.70
73918;BME280;63639;52.280;5.162;2022-12-29T12:21:27;100350.77;;;12.04;69.55
73918;BME280;63639;52.280;5.162;2022-12-29T12:24:20;100346.76;;;12.02;69.32
73918;BME280;63639;52.280;5.162;2022-12-29T12:26:58;100360.70;;;11.90;70.09
73918;BME280;63639;52.280;5.162;2022-12-29T12:29:33;100358.29;;;12.06;69.57
73918;BME280;63639;52.280;5.162;2022-12-29T12:32:09;100357.33;;;12.15;70.57
73918;BME280;63639;52.280;5.162;2022-12-29T12:34:40;100361.52;;;12.41;70.10
73918;BME280;63639;52.280;5.162;2022-12-29T12:37:25;100358.53;;;12.67;69.77
73918;BME280;63639;52.280;5.162;2022-12-29T12:40:28;100373.93;;;12.76;68.60
73918;BME280;63639;52.280;5.162;2022-12-29T12:43:07;100369.57;;;12.23;68.74
73918;BME280;63639;52.280;5.162;2022-12-29T12:45:48;100370.73;;;12.22;68.13
73918;BME280;63639;52.280;5.162;2022-12-29T12:48:34;100375.59;;;12.14;68.63
73918;BME280;63639;52.280;5.162;2022-12-29T12:51:12;100370.89;;;12.30;67.83
73918;BME280;63639;52.280;5.162;2022-12-29T12:53:55;100384.43;;;12.64;66.59
73918;BME280;63639;52.280;5.162;2022-12-29T12:56:37;100373.95;;;12.26;66.93
73918;BME280;63639;52.280;5.162;2022-12-29T12:59:17;100385.15;;;12.38;66.81
73918;BME280;63639;52.280;5.162;2022-12-29T13:01:57;100382.37;;;12.61;67.00
73918;BME280;63639;52.280;5.162;2022-12-29T13:04:41;100382.95;;;12.64;66.46
73918;BME280;63639;52.280;5.162;2022-12-29T13:07:16;100387.46;;;12.15;67.03
73918;BME280;63639;52.280;5.162;2022-12-29T13:10:05;100388.64;;;12.40;68.03